sensor_id;sensor_type;location;lat;lon;timestamp;P1;durP1;ratioP1;P2;durP2;ratioP2
22129;SDS011;11231;50.746;4.272;2023-10-13T00:01:30;44.50;;;21.60;;
22129;SDS011;11231;50.746;4.272;2023-10-13T00:03:56;38.00;;;21.87;;
22129;SDS011;11231;50.746;4.272;2023-10-13T00:06:21;38.10;;;22.40;;
22129;SDS011;11231;50.746;4.272;2023-10-13T00:08:47;39.87;;;22.03;;
22129;SDS011;11231;50.746;4.272;2023-10-13T00:11:14;39.43;;;22.47;;
22129;SDS011;11231;50.746;4.272;2023-10-13T00:13:40;40.43;;;22.40;;
22129;SDS011;11231;50.746;4.272;2023-10-13T00:16:22;38.30;;;22.40;;
22129;SDS011;11231;50.746;4.272;2023-10-13T00:18:52;38.03;;;22.07;;
22129;SDS011;11231;50.746;4.272;2023-10-13T00:21:23;40.60;;;22.90;;
22129;SDS011;11231;50.746;4.272;2023-10-13T00:24:00;41.47;;;22.90;;
22129;SDS011;11231;50.746;4.272;2023-10-13T00:26:31;39.87;;;22.37;;
22129;SDS011;11231;50.746;4.272;2023-10-13T00:29:02;40.43;;;22.77;;
22129;SDS011;11231;50.746;4.272;2023-10-13T00:31:40;38.67;;;22.73;;
22129;SDS011;11231;50.746;4.272;2023-10-13T00:34:08;42.50;;;23.97;;
22129;SDS011;11231;50.746;4.272;2023-10-13T00:36:41;43.50;;;24.63;;
22129;SDS011;11231;50.746;4.272;2023-10-13T00:39:33;43.47;;;23.83;;
22129;SDS011;11231;50.746;4.272;2023-10-13T00:42:02;43.40;;;25.17;;
22129;SDS011;11231;50.746;4.272;2023-10-13T00:44:32;43.83;;;24.27;;
22129;SDS011;11231;50.746;4.272;2023-10-13T00:47:09;44.37;;;25.53;;
22129;SDS011;11231;50.746;4.272;2023-10-13T00:49:41;43.23;;;25.50;;
22129;SDS011;11231;50.746;4.272;2023-10-13T00:52:12;46.23;;;25.33;;
22129;SDS011;11231;50.746;4.272;2023-10-13T00:54:41;43.00;;;23.10;;
22129;SDS011;11231;50.746;4.272;2023-10-13T00:57:14;41.87;;;23.50;;
22129;SDS011;11231;50.746;4.272;2023-10-13T00:59:55;42.23;;;23.33;;
22129;SDS011;11231;50.746;4.272;2023-10-13T01:02:37;43.43;;;22.77;;
22129;SDS011;11231;50.746;4.272;2023-10-13T01:05:03;36.03;;;21.97;;
22129;SDS011;11231;50.746;4.272;2023-10-13T01:07:30;38.10;;;22.60;;
22129;SDS011;11231;50.746;4.272;2023-10-13T01:09:56;35.67;;;22.53;;
22129;SDS011;11231;50.746;4.272;2023-10-13T01:12:22;37.20;;;22.00;;
22129;SDS011;11231;50.746;4.272;2023-10-13T01:14:51;37.47;;;21.93;;
22129;SDS011;11231;50.746;4.272;2023-10-13T01:17:17;36.30;;;20.27;;
22129;SDS011;11231;50.746;4.272;2023-10-13T01:19:45;39.60;;;21.07;;
22129;SDS011;11231;50.746;4.272;2023-10-13T01:22:14;36.00;;;19.37;;
22129;SDS011;11231;50.746;4.272;2023-10-13T01:24:40;32.43;;;19.73;;
22129;SDS011;11231;50.746;4.272;2023-10-13T01:27:07;30.93;;;18.10;;
22129;SDS011;11231;50.746;4.272;2023-10-13T01:29:48;31.43;;;18.30;;
22129;SDS011;11231;50.746;4.272;2023-10-13T01:32:19;32.50;;;18.43;;
22129;SDS011;11231;50.746;4.272;2023-10-13T01:34:47;36.87;;;19.53;;
22129;SDS011;11231;50.746;4.272;2023-10-13T01:37:15;36.33;;;17.80;;
22129;SDS011;11231;50.746;4.272;2023-10-13T01:39:41;33.73;;;18.07;;
22129;SDS011;11231;50.746;4.272;2023-10-13T01:42:08;38.83;;;18.33;;
22129;SDS011;11231;50.746;4.272;2023-10-13T01:44:33;30.57;;;18.03;;
22129;SDS011;11231;50.746;4.272;2023-10-13T01:47:00;32.53;;;16.73;;
22129;SDS011;11231;50.746;4.272;2023-10-13T01:49:33;31.60;;;17.43;;
22129;SDS011;11231;50.746;4.272;2023-10-13T01:52:08;31.23;;;17.90;;
22129;SDS011;11231;50.746;4.272;2023-10-13T01:54:39;31.30;;;16.33;;
22129;SDS011;11231;50.746;4.272;2023-10-13T01:57:06;31.30;;;17.57;;
22129;SDS011;11231;50.746;4.272;2023-10-13T01:59:33;29.47;;;16.87;;
22129;SDS011;11231;50.746;4.272;2023-10-13T02:02:03;34.50;;;17.07;;
22129;SDS011;11231;50.746;4.272;2023-10-13T02:04:30;32.07;;;17.07;;
22129;SDS011;11231;50.746;4.272;2023-10-13T02:07:07;33.93;;;16.87;;
22129;SDS011;11231;50.746;4.272;2023-10-13T02:09:33;31.47;;;16.70;;
22129;SDS011;11231;50.746;4.272;2023-10-13T02:12:02;31.17;;;16.70;;
22129;SDS011;11231;50.746;4.272;2023-10-13T02:14:28;30.67;;;16.73;;
22129;SDS011;11231;50.746;4.272;2023-10-13T02:16:54;28.43;;;15.83;;
22129;SDS011;11231;50.746;4.272;2023-10-13T02:19:22;29.03;;;16.50;;
22129;SDS011;11231;50.746;4.272;2023-10-13T02:21:52;28.50;;;15.90;;
22129;SDS011;11231;50.746;4.272;2023-10-13T02:24:24;28.53;;;15.77;;
22129;SDS011;11231;50.746;4.272;2023-10-13T02:26:58;30.30;;;15.27;;
22129;SDS011;11231;50.746;4.272;2023-10-13T02:29:30;28.57;;;14.97;;
22129;SDS011;11231;50.746;4.272;2023-10-13T02:31:56;29.10;;;15.47;;
22129;SDS011;11231;50.746;4.272;2023-10-13T02:34:23;30.73;;;16.37;;
22129;SDS011;11231;50.746;4.272;2023-10-13T02:36:49;25.60;;;15.57;;
22129;SDS011;11231;50.746;4.272;2023-10-13T02:39:15;28.07;;;14.90;;
22129;SDS011;11231;50.746;4.272;2023-10-13T02:41:41;24.73;;;13.83;;
22129;SDS011;11231;50.746;4.272;2023-10-13T02:44:13;29.73;;;14.27;;
22129;SDS011;11231;50.746;4.272;2023-10-13T02:47:05;31.47;;;14.73;;
22129;SDS011;11231;50.746;4.272;2023-10-13T02:49:38;29.33;;;14.40;;
22129;SDS011;11231;50.746;4.272;2023-10-13T02:52:08;27.47;;;14.53;;
22129;SDS011;11231;50.746;4.272;2023-10-13T02:54:38;27.83;;;13.67;;
22129;SDS011;11231;50.746;4.272;2023-10-13T02:57:15;28.63;;;14.10;;
22129;SDS011;11231;50.746;4.272;2023-10-13T02:59:42;28.43;;;14.57;;
22129;SDS011;11231;50.746;4.272;2023-10-13T03:02:12;26.00;;;13.77;;
22129;SDS011;11231;50.746;4.272;2023-10-13T03:04:54;27.23;;;13.87;;
22129;SDS011;11231;50.746;4.272;2023-10-13T03:07:34;30.60;;;13.43;;
22129;SDS011;11231;50.746;4.272;2023-10-13T03:10:02;24.63;;;12.77;;
22129;SDS011;11231;50.746;4.272;2023-10-13T03:12:38;26.87;;;13.10;;
22129;SDS011;11231;50.746;4.272;2023-10-13T03:15:05;26.33;;;12.90;;
22129;SDS011;11231;50.746;4.272;2023-10-13T03:17:42;26.40;;;12.40;;
22129;SDS011;11231;50.746;4.272;2023-10-13T03:20:15;29.27;;;12.90;;
22129;SDS011;11231;50.746;4.272;2023-10-13T03:22:52;23.97;;;10.93;;
22129;SDS011;11231;50.746;4.272;2023-10-13T03:25:18;26.50;;;12.20;;
22129;SDS011;11231;50.746;4.272;2023-10-13T03:28:07;27.57;;;11.60;;
22129;SDS011;11231;50.746;4.272;2023-10-13T03:30:36;24.70;;;12.37;;
22129;SDS011;11231;50.746;4.272;2023-10-13T03:33:12;28.87;;;13.13;;
22129;SDS011;11231;50.746;4.272;2023-10-13T03:35:39;28.53;;;12.93;;
22129;SDS011;11231;50.746;4.272;2023-10-13T03:38:17;26.53;;;12.40;;
22129;SDS011;11231;50.746;4.272;2023-10-13T03:40:47;26.50;;;12.40;;
22129;SDS011;11231;50.746;4.272;2023-10-13T03:43:15;25.20;;;11.97;;
22129;SDS011;11231;50.746;4.272;2023-10-13T03:45:48;27.13;;;11.40;;
22129;SDS011;11231;50.746;4.272;2023-10-13T03:48:18;31.83;;;12.13;;
22129;SDS011;11231;50.746;4.272;2023-10-13T03:50:51;24.57;;;11.07;;
22129;SDS011;11231;50.746;4.272;2023-10-13T03:53:27;24.97;;;11.07;;
22129;SDS011;11231;50.746;4.272;2023-10-13T03:55:59;25.77;;;10.73;;
22129;SDS011;11231;50.746;4.272;2023-10-13T03:58:40;32.60;;;12.10;;
22129;SDS011;11231;50.746;4.272;2023-10-13T04:01:12;31.87;;;12.27;;
22129;SDS011;11231;50.746;4.272;2023-10-13T04:03:41;25.93;;;11.10;;
22129;SDS011;11231;50.746;4.272;2023-10-13T04:06:27;24.40;;;11.33;;
22129;SDS011;11231;50.746;4.272;2023-10-13T04:09:18;25.27;;;10.87;;
22129;SDS011;11231;50.746;4.272;2023-10-13T04:11:57;25.97;;;11.53;;
22129;SDS011;11231;50.746;4.272;2023-10-13T04:14:34;26.97;;;11.57;;
22129;SDS011;11231;50.746;4.272;2023-10-13T04:17:19;28.80;;;11.07;;
22129;SDS011;11231;50.746;4.272;2023-10-13T04:19:52;29.77;;;11.33;;
22129;SDS011;11231;50.746;4.272;2023-10-13T04:22:38;28.13;;;11.63;;
22129;SDS011;11231;50.746;4.272;2023-10-13T04:25:11;27.90;;;11.23;;
22129;SDS011;11231;50.746;4.272;2023-10-13T04:27:57;30.97;;;11.63;;
22129;SDS011;11231;50.746;4.272;2023-10-13T04:30:48;28.63;;;12.07;;
22129;SDS011;11231;50.746;4.272;2023-10-13T04:33:18;26.73;;;12.10;;
22129;SDS011;11231;50.746;4.272;2023-10-13T04:38:53;30.27;;;13.43;;
22129;SDS011;11231;50.746;4.272;2023-10-13T04:41:30;31.30;;;13.47;;
22129;SDS011;11231;50.746;4.272;2023-10-13T04:44:23;31.60;;;13.50;;
22129;SDS011;11231;50.746;4.272;2023-10-13T04:47:08;29.87;;;13.70;;
22129;SDS011;11231;50.746;4.272;2023-10-13T04:49:42;30.83;;;12.70;;
22129;SDS011;11231;50.746;4.272;2023-10-13T04:52:09;31.17;;;12.67;;
22129;SDS011;11231;50.746;4.272;2023-10-13T04:54:39;29.27;;;12.00;;
22129;SDS011;11231;50.746;4.272;2023-10-13T04:57:19;28.40;;;11.60;;
22129;SDS011;11231;50.746;4.272;2023-10-13T04:59:58;33.57;;;11.07;;
22129;SDS011;11231;50.746;4.272;2023-10-13T05:02:37;31.07;;;9.80;;
22129;SDS011;11231;50.746;4.272;2023-10-13T05:05:05;23.40;;;9.47;;
22129;SDS011;11231;50.746;4.272;2023-10-13T05:07:50;25.40;;;8.17;;
22129;SDS011;11231;50.746;4.272;2023-10-13T05:10:36;25.53;;;8.33;;
22129;SDS011;11231;50.746;4.272;2023-10-13T05:13:21;25.90;;;8.80;;
22129;SDS011;11231;50.746;4.272;2023-10-13T05:16:05;28.10;;;8.60;;
22129;SDS011;11231;50.746;4.272;2023-10-13T05:19:38;31.17;;;8.83;;
22129;SDS011;11231;50.746;4.272;2023-10-13T05:22:07;21.70;;;8.03;;
22129;SDS011;11231;50.746;4.272;2023-10-13T05:24:51;28.90;;;9.00;;
22129;SDS011;11231;50.746;4.272;2023-10-13T05:27:36;23.37;;;8.40;;
22129;SDS011;11231;50.746;4.272;2023-10-13T05:30:20;23.57;;;7.90;;
22129;SDS011;11231;50.746;4.272;2023-10-13T05:33:04;24.33;;;8.07;;
22129;SDS011;11231;50.746;4.272;2023-10-13T05:35:49;22.83;;;8.30;;
22129;SDS011;11231;50.746;4.272;2023-10-13T05:38:34;24.50;;;8.40;;
22129;SDS011;11231;50.746;4.272;2023-10-13T05:41:18;24.13;;;7.73;;
22129;SDS011;11231;50.746;4.272;2023-10-13T05:44:02;22.00;;;8.20;;
22129;SDS011;11231;50.746;4.272;2023-10-13T05:46:48;25.17;;;8.50;;
22129;SDS011;11231;50.746;4.272;2023-10-13T05:49:14;22.97;;;8.10;;
22129;SDS011;11231;50.746;4.272;2023-10-13T05:51:40;22.53;;;7.40;;
22129;SDS011;11231;50.746;4.272;2023-10-13T05:54:12;22.07;;;7.37;;
22129;SDS011;11231;50.746;4.272;2023-10-13T05:59:24;23.80;;;7.73;;
22129;SDS011;11231;50.746;4.272;2023-10-13T06:02:09;21.37;;;7.73;;
22129;SDS011;11231;50.746;4.272;2023-10-13T06:04:53;23.07;;;7.20;;
22129;SDS011;11231;50.746;4.272;2023-10-13T06:07:38;18.03;;;6.70;;
22129;SDS011;11231;50.746;4.272;2023-10-13T06:10:22;20.67;;;7.20;;
22129;SDS011;11231;50.746;4.272;2023-10-13T06:13:07;18.20;;;6.90;;
22129;SDS011;11231;50.746;4.272;2023-10-13T06:15:51;19.50;;;7.00;;
22129;SDS011;11231;50.746;4.272;2023-10-13T06:18:36;25.43;;;6.67;;
22129;SDS011;11231;50.746;4.272;2023-10-13T06:21:20;24.93;;;7.57;;
22129;SDS011;11231;50.746;4.272;2023-10-13T06:24:06;20.63;;;6.60;;
22129;SDS011;11231;50.746;4.272;2023-10-13T06:26:51;19.13;;;6.40;;
22129;SDS011;11231;50.746;4.272;2023-10-13T06:29:35;18.93;;;6.53;;
22129;SDS011;11231;50.746;4.272;2023-10-13T06:32:01;18.33;;;6.70;;
22129;SDS011;11231;50.746;4.272;2023-10-13T06:34:35;23.47;;;6.33;;
22129;SDS011;11231;50.746;4.272;2023-10-13T06:37:16;23.70;;;7.00;;
22129;SDS011;11231;50.746;4.272;2023-10-13T06:39:51;17.60;;;5.63;;
22129;SDS011;11231;50.746;4.272;2023-10-13T06:42:24;16.60;;;6.03;;
22129;SDS011;11231;50.746;4.272;2023-10-13T06:44:56;18.23;;;6.43;;
22129;SDS011;11231;50.746;4.272;2023-10-13T06:47:23;18.63;;;6.00;;
22129;SDS011;11231;50.746;4.272;2023-10-13T06:49:50;17.70;;;6.10;;
22129;SDS011;11231;50.746;4.272;2023-10-13T06:52:20;19.20;;;6.73;;
22129;SDS011;11231;50.746;4.272;2023-10-13T06:54:51;15.73;;;6.23;;
22129;SDS011;11231;50.746;4.272;2023-10-13T06:57:20;22.10;;;6.17;;
22129;SDS011;11231;50.746;4.272;2023-10-13T06:59:47;18.33;;;6.67;;
22129;SDS011;11231;50.746;4.272;2023-10-13T07:02:13;16.27;;;6.07;;
22129;SDS011;11231;50.746;4.272;2023-10-13T07:04:58;19.27;;;6.27;;
22129;SDS011;11231;50.746;4.272;2023-10-13T07:07:36;18.40;;;6.20;;
22129;SDS011;11231;50.746;4.272;2023-10-13T07:10:09;18.43;;;5.73;;
22129;SDS011;11231;50.746;4.272;2023-10-13T07:12:37;23.80;;;6.33;;
22129;SDS011;11231;50.746;4.272;2023-10-13T07:15:08;18.23;;;6.30;;
22129;SDS011;11231;50.746;4.272;2023-10-13T07:17:44;16.97;;;6.20;;
22129;SDS011;11231;50.746;4.272;2023-10-13T07:20:13;17.40;;;6.40;;
22129;SDS011;11231;50.746;4.272;2023-10-13T07:22:53;19.53;;;5.83;;
22129;SDS011;11231;50.746;4.272;2023-10-13T07:25:31;20.40;;;6.27;;
22129;SDS011;11231;50.746;4.272;2023-10-13T07:27:58;15.90;;;6.23;;
22129;SDS011;11231;50.746;4.272;2023-10-13T07:30:25;20.13;;;6.30;;
22129;SDS011;11231;50.746;4.272;2023-10-13T07:32:52;17.07;;;5.93;;
22129;SDS011;11231;50.746;4.272;2023-10-13T07:35:23;18.67;;;6.43;;
22129;SDS011;11231;50.746;4.272;2023-10-13T07:37:50;21.57;;;5.93;;
22129;SDS011;11231;50.746;4.272;2023-10-13T07:40:22;20.07;;;6.20;;
22129;SDS011;11231;50.746;4.272;2023-10-13T07:42:51;16.33;;;6.57;;
22129;SDS011;11231;50.746;4.272;2023-10-13T07:45:17;18.20;;;6.37;;
22129;SDS011;11231;50.746;4.272;2023-10-13T07:47:47;23.50;;;6.70;;
22129;SDS011;11231;50.746;4.272;2023-10-13T07:50:18;17.67;;;6.47;;
22129;SDS011;11231;50.746;4.272;2023-10-13T07:52:50;16.70;;;6.03;;
22129;SDS011;11231;50.746;4.272;2023-10-13T07:55:24;15.23;;;6.93;;
22129;SDS011;11231;50.746;4.272;2023-10-13T07:57:50;14.77;;;5.93;;
22129;SDS011;11231;50.746;4.272;2023-10-13T08:00:24;19.23;;;6.70;;
22129;SDS011;11231;50.746;4.272;2023-10-13T08:02:57;21.43;;;6.43;;
22129;SDS011;11231;50.746;4.272;2023-10-13T08:05:41;15.73;;;6.23;;
22129;SDS011;11231;50.746;4.272;2023-10-13T08:08:26;14.57;;;6.40;;
22129;SDS011;11231;50.746;4.272;2023-10-13T08:11:00;17.43;;;6.80;;
22129;SDS011;11231;50.746;4.272;2023-10-13T08:13:35;17.37;;;6.47;;
22129;SDS011;11231;50.746;4.272;2023-10-13T08:16:02;20.00;;;6.13;;
22129;SDS011;11231;50.746;4.272;2023-10-13T08:18:46;17.47;;;6.27;;
22129;SDS011;11231;50.746;4.272;2023-10-13T08:21:14;21.30;;;6.53;;
22129;SDS011;11231;50.746;4.272;2023-10-13T08:23:43;18.27;;;6.50;;
22129;SDS011;11231;50.746;4.272;2023-10-13T08:26:24;19.10;;;6.37;;
22129;SDS011;11231;50.746;4.272;2023-10-13T08:28:58;21.40;;;6.43;;
22129;SDS011;11231;50.746;4.272;2023-10-13T08:31:51;17.57;;;6.20;;
22129;SDS011;11231;50.746;4.272;2023-10-13T08:34:36;21.40;;;6.53;;
22129;SDS011;11231;50.746;4.272;2023-10-13T08:37:12;18.63;;;7.23;;
22129;SDS011;11231;50.746;4.272;2023-10-13T08:40:00;15.60;;;5.87;;
22129;SDS011;11231;50.746;4.272;2023-10-13T08:42:32;18.27;;;6.87;;
22129;SDS011;11231;50.746;4.272;2023-10-13T08:45:13;20.20;;;6.53;;
22129;SDS011;11231;50.746;4.272;2023-10-13T08:48:07;19.03;;;6.90;;
22129;SDS011;11231;50.746;4.272;2023-10-13T08:50:39;21.33;;;6.70;;
22129;SDS011;11231;50.746;4.272;2023-10-13T08:53:21;17.23;;;6.80;;
22129;SDS011;11231;50.746;4.272;2023-10-13T08:55:57;17.43;;;7.70;;
22129;SDS011;11231;50.746;4.272;2023-10-13T08:58:39;16.33;;;6.53;;
22129;SDS011;11231;50.746;4.272;2023-10-13T09:01:23;16.90;;;6.73;;
22129;SDS011;11231;50.746;4.272;2023-10-13T09:04:14;16.83;;;6.73;;
22129;SDS011;11231;50.746;4.272;2023-10-13T09:09:25;18.77;;;7.50;;
22129;SDS011;11231;50.746;4.272;2023-10-13T09:12:27;18.10;;;6.90;;
22129;SDS011;11231;50.746;4.272;2023-10-13T09:14:57;16.47;;;6.67;;
22129;SDS011;11231;50.746;4.272;2023-10-13T09:17:24;15.57;;;6.77;;
22129;SDS011;11231;50.746;4.272;2023-10-13T09:20:07;20.60;;;6.87;;
22129;SDS011;11231;50.746;4.272;2023-10-13T09:22:53;17.13;;;7.27;;
22129;SDS011;11231;50.746;4.272;2023-10-13T09:25:29;16.60;;;6.60;;
22129;SDS011;11231;50.746;4.272;2023-10-13T09:30:49;18.80;;;7.60;;
22129;SDS011;11231;50.746;4.272;2023-10-13T09:33:25;17.40;;;7.13;;
22129;SDS011;11231;50.746;4.272;2023-10-13T09:36:03;18.73;;;6.80;;
22129;SDS011;11231;50.746;4.272;2023-10-13T09:38:38;19.47;;;7.53;;
22129;SDS011;11231;50.746;4.272;2023-10-13T09:41:13;17.67;;;6.90;;
22129;SDS011;11231;50.746;4.272;2023-10-13T09:43:45;16.33;;;6.73;;
22129;SDS011;11231;50.746;4.272;2023-10-13T09:46:13;18.87;;;7.10;;
22129;SDS011;11231;50.746;4.272;2023-10-13T09:48:48;17.60;;;7.50;;
22129;SDS011;11231;50.746;4.272;2023-10-13T09:51:29;14.93;;;7.13;;
22129;SDS011;11231;50.746;4.272;2023-10-13T09:56:42;17.17;;;7.07;;
22129;SDS011;11231;50.746;4.272;2023-10-13T09:59:20;17.00;;;6.73;;
22129;SDS011;11231;50.746;4.272;2023-10-13T10:01:59;18.07;;;7.00;;
22129;SDS011;11231;50.746;4.272;2023-10-13T10:04:33;18.90;;;7.00;;
22129;SDS011;11231;50.746;4.272;2023-10-13T10:07:10;18.67;;;7.37;;
22129;SDS011;11231;50.746;4.272;2023-10-13T10:09:36;21.27;;;7.90;;
22129;SDS011;11231;50.746;4.272;2023-10-13T10:17:20;21.93;;;6.27;;
22129;SDS011;11231;50.746;4.272;2023-10-13T10:19:47;24.17;;;7.47;;
22129;SDS011;11231;50.746;4.272;2023-10-13T10:22:30;19.20;;;7.07;;
22129;SDS011;11231;50.746;4.272;2023-10-13T10:25:01;23.60;;;6.63;;
22129;SDS011;11231;50.746;4.272;2023-10-13T10:27:31;16.83;;;6.47;;
22129;SDS011;11231;50.746;4.272;2023-10-13T10:30:01;23.73;;;7.20;;
22129;SDS011;11231;50.746;4.272;2023-10-13T10:32:34;25.90;;;7.17;;
22129;SDS011;11231;50.746;4.272;2023-10-13T10:35:06;18.37;;;6.33;;
22129;SDS011;11231;50.746;4.272;2023-10-13T10:37:40;21.07;;;6.60;;
22129;SDS011;11231;50.746;4.272;2023-10-13T10:40:16;20.47;;;6.57;;
22129;SDS011;11231;50.746;4.272;2023-10-13T10:43:02;18.07;;;6.53;;
22129;SDS011;11231;50.746;4.272;2023-10-13T10:45:33;22.93;;;7.10;;
22129;SDS011;11231;50.746;4.272;2023-10-13T10:48:02;21.37;;;6.53;;
22129;SDS011;11231;50.746;4.272;2023-10-13T10:50:52;20.63;;;6.67;;
22129;SDS011;11231;50.746;4.272;2023-10-13T10:53:24;24.17;;;7.10;;
22129;SDS011;11231;50.746;4.272;2023-10-13T10:56:08;25.87;;;7.70;;
22129;SDS011;11231;50.746;4.272;2023-10-13T10:58:45;22.60;;;7.00;;
22129;SDS011;11231;50.746;4.272;2023-10-13T11:01:12;25.00;;;6.97;;
22129;SDS011;11231;50.746;4.272;2023-10-13T11:06:32;20.23;;;6.97;;
22129;SDS011;11231;50.746;4.272;2023-10-13T11:09:08;19.17;;;6.90;;
22129;SDS011;11231;50.746;4.272;2023-10-13T11:11:54;20.70;;;7.00;;
22129;SDS011;11231;50.746;4.272;2023-10-13T11:14:23;24.97;;;7.37;;
22129;SDS011;11231;50.746;4.272;2023-10-13T11:16:51;16.57;;;6.53;;
22129;SDS011;11231;50.746;4.272;2023-10-13T11:22:09;19.00;;;7.07;;
22129;SDS011;11231;50.746;4.272;2023-10-13T11:24:57;23.27;;;7.07;;
22129;SDS011;11231;50.746;4.272;2023-10-13T11:27:30;25.73;;;6.87;;
22129;SDS011;11231;50.746;4.272;2023-10-13T11:30:18;24.17;;;6.87;;
22129;SDS011;11231;50.746;4.272;2023-10-13T11:33:09;17.17;;;6.30;;
22129;SDS011;11231;50.746;4.272;2023-10-13T11:35:37;22.30;;;7.10;;
22129;SDS011;11231;50.746;4.272;2023-10-13T11:38:19;19.43;;;6.97;;
22129;SDS011;11231;50.746;4.272;2023-10-13T11:40:56;17.10;;;6.20;;
22129;SDS011;11231;50.746;4.272;2023-10-13T11:43:34;20.93;;;6.13;;
22129;SDS011;11231;50.746;4.272;2023-10-13T11:46:07;21.07;;;6.80;;
22129;SDS011;11231;50.746;4.272;2023-10-13T11:48:36;19.87;;;6.83;;
22129;SDS011;11231;50.746;4.272;2023-10-13T11:51:03;20.90;;;6.30;;
22129;SDS011;11231;50.746;4.272;2023-10-13T11:53:35;20.20;;;6.40;;
22129;SDS011;11231;50.746;4.272;2023-10-13T11:56:02;18.67;;;6.47;;
22129;SDS011;11231;50.746;4.272;2023-10-13T11:58:37;18.73;;;6.63;;
22129;SDS011;11231;50.746;4.272;2023-10-13T12:01:05;19.57;;;6.97;;
22129;SDS011;11231;50.746;4.272;2023-10-13T12:03:41;20.33;;;6.22;;
22129;SDS011;11231;50.746;4.272;2023-10-13T12:06:26;22.73;;;6.70;;
22129;SDS011;11231;50.746;4.272;2023-10-13T12:09:03;18.60;;;6.60;;
22129;SDS011;11231;50.746;4.272;2023-10-13T12:11:45;21.63;;;6.67;;
22129;SDS011;11231;50.746;4.272;2023-10-13T12:14:15;22.50;;;6.73;;
22129;SDS011;11231;50.746;4.272;2023-10-13T12:16:49;18.10;;;6.20;;
22129;SDS011;11231;50.746;4.272;2023-10-13T12:19:25;22.07;;;6.00;;
22129;SDS011;11231;50.746;4.272;2023-10-13T12:21:53;17.20;;;6.60;;
22129;SDS011;11231;50.746;4.272;2023-10-13T12:24:21;17.13;;;6.60;;
22129;SDS011;11231;50.746;4.272;2023-10-13T12:27:01;19.27;;;6.00;;
22129;SDS011;11231;50.746;4.272;2023-10-13T12:29:28;18.43;;;5.93;;
22129;SDS011;11231;50.746;4.272;2023-10-13T12:31:55;16.27;;;6.33;;
22129;SDS011;11231;50.746;4.272;2023-10-13T12:34:35;16.57;;;6.20;;
22129;SDS011;11231;50.746;4.272;2023-10-13T12:37:20;17.33;;;6.13;;
22129;SDS011;11231;50.746;4.272;2023-10-13T12:40:04;17.30;;;6.33;;
22129;SDS011;11231;50.746;4.272;2023-10-13T12:42:50;19.80;;;5.70;;
22129;SDS011;11231;50.746;4.272;2023-10-13T12:45:40;20.33;;;6.37;;
22129;SDS011;11231;50.746;4.272;2023-10-13T12:48:25;18.50;;;6.13;;
22129;SDS011;11231;50.746;4.272;2023-10-13T12:51:10;19.70;;;6.30;;
22129;SDS011;11231;50.746;4.272;2023-10-13T12:54:05;16.77;;;5.93;;
22129;SDS011;11231;50.746;4.272;2023-10-13T12:56:39;16.43;;;5.73;;
22129;SDS011;11231;50.746;4.272;2023-10-13T12:59:09;21.27;;;6.47;;
22129;SDS011;11231;50.746;4.272;2023-10-13T13:01:38;14.40;;;6.17;;
22129;SDS011;11231;50.746;4.272;2023-10-13T13:04:11;24.87;;;6.33;;
22129;SDS011;11231;50.746;4.272;2023-10-13T13:06:43;14.13;;;5.80;;
22129;SDS011;11231;50.746;4.272;2023-10-13T13:09:09;20.30;;;5.97;;
22129;SDS011;11231;50.746;4.272;2023-10-13T13:11:35;17.30;;;6.10;;
22129;SDS011;11231;50.746;4.272;2023-10-13T13:14:07;15.67;;;5.97;;
22129;SDS011;11231;50.746;4.272;2023-10-13T13:16:34;16.20;;;6.00;;
22129;SDS011;11231;50.746;4.272;2023-10-13T13:19:01;16.63;;;6.20;;
22129;SDS011;11231;50.746;4.272;2023-10-13T13:21:38;20.07;;;6.17;;
22129;SDS011;11231;50.746;4.272;2023-10-13T13:24:04;18.73;;;6.40;;
22129;SDS011;11231;50.746;4.272;2023-10-13T13:26:38;14.97;;;6.13;;
22129;SDS011;11231;50.746;4.272;2023-10-13T13:29:07;15.43;;;6.00;;
22129;SDS011;11231;50.746;4.272;2023-10-13T13:31:36;16.00;;;6.13;;
22129;SDS011;11231;50.746;4.272;2023-10-13T13:34:10;14.30;;;5.27;;
22129;SDS011;11231;50.746;4.272;2023-10-13T13:36:38;16.33;;;5.83;;
22129;SDS011;11231;50.746;4.272;2023-10-13T13:39:09;17.23;;;6.03;;
22129;SDS011;11231;50.746;4.272;2023-10-13T13:41:42;18.40;;;5.53;;
22129;SDS011;11231;50.746;4.272;2023-10-13T13:44:09;14.60;;;5.60;;
22129;SDS011;11231;50.746;4.272;2023-10-13T13:46:40;17.90;;;5.60;;
22129;SDS011;11231;50.746;4.272;2023-10-13T13:49:06;13.80;;;6.30;;
22129;SDS011;11231;50.746;4.272;2023-10-13T13:51:44;18.07;;;6.07;;
22129;SDS011;11231;50.746;4.272;2023-10-13T13:54:17;17.07;;;5.90;;
22129;SDS011;11231;50.746;4.272;2023-10-13T13:56:46;18.00;;;6.23;;
22129;SDS011;11231;50.746;4.272;2023-10-13T13:59:12;18.23;;;5.80;;
22129;SDS011;11231;50.746;4.272;2023-10-13T14:01:43;12.03;;;5.37;;
22129;SDS011;11231;50.746;4.272;2023-10-13T14:04:12;13.43;;;5.60;;
22129;SDS011;11231;50.746;4.272;2023-10-13T14:06:43;18.87;;;6.13;;
22129;SDS011;11231;50.746;4.272;2023-10-13T14:09:10;14.23;;;5.40;;
22129;SDS011;11231;50.746;4.272;2023-10-13T14:11:55;15.70;;;6.10;;
22129;SDS011;11231;50.746;4.272;2023-10-13T14:14:39;16.13;;;5.83;;
22129;SDS011;11231;50.746;4.272;2023-10-13T14:17:12;14.97;;;5.80;;
22129;SDS011;11231;50.746;4.272;2023-10-13T14:19:38;19.93;;;6.87;;
22129;SDS011;11231;50.746;4.272;2023-10-13T14:22:05;19.50;;;6.20;;
22129;SDS011;11231;50.746;4.272;2023-10-13T14:24:32;20.47;;;5.60;;
22129;SDS011;11231;50.746;4.272;2023-10-13T14:27:01;16.77;;;5.27;;
22129;SDS011;11231;50.746;4.272;2023-10-13T14:29:44;18.17;;;5.80;;
22129;SDS011;11231;50.746;4.272;2023-10-13T14:32:11;13.93;;;5.77;;
22129;SDS011;11231;50.746;4.272;2023-10-13T14:34:42;17.43;;;5.87;;
22129;SDS011;11231;50.746;4.272;2023-10-13T14:37:09;15.87;;;6.17;;
22129;SDS011;11231;50.746;4.272;2023-10-13T14:39:41;13.83;;;6.23;;
22129;SDS011;11231;50.746;4.272;2023-10-13T14:42:07;18.97;;;6.60;;
22129;SDS011;11231;50.746;4.272;2023-10-13T14:44:33;15.27;;;5.97;;
22129;SDS011;11231;50.746;4.272;2023-10-13T14:47:02;16.00;;;5.97;;
22129;SDS011;11231;50.746;4.272;2023-10-13T14:49:30;15.13;;;6.20;;
22129;SDS011;11231;50.746;4.272;2023-10-13T14:51:56;15.70;;;5.90;;
22129;SDS011;11231;50.746;4.272;2023-10-13T14:54:24;15.37;;;6.07;;
22129;SDS011;11231;50.746;4.272;2023-10-13T14:57:00;13.97;;;5.40;;
22129;SDS011;11231;50.746;4.272;2023-10-13T14:59:27;12.97;;;6.10;;
22129;SDS011;11231;50.746;4.272;2023-10-13T15:01:58;17.30;;;6.20;;
22129;SDS011;11231;50.746;4.272;2023-10-13T15:04:24;16.80;;;6.07;;
22129;SDS011;11231;50.746;4.272;2023-10-13T15:06:50;13.67;;;5.80;;
22129;SDS011;11231;50.746;4.272;2023-10-13T15:09:16;17.97;;;6.13;;
22129;SDS011;11231;50.746;4.272;2023-10-13T15:11:49;19.07;;;5.83;;
22129;SDS011;11231;50.746;4.272;2023-10-13T15:14:18;17.43;;;6.30;;
22129;SDS011;11231;50.746;4.272;2023-10-13T15:16:48;11.10;;;5.57;;
22129;SDS011;11231;50.746;4.272;2023-10-13T15:19:14;17.57;;;6.00;;
22129;SDS011;11231;50.746;4.272;2023-10-13T15:21:43;14.70;;;5.80;;
22129;SDS011;11231;50.746;4.272;2023-10-13T15:24:14;15.30;;;5.83;;
22129;SDS011;11231;50.746;4.272;2023-10-13T15:26:44;13.83;;;5.93;;
22129;SDS011;11231;50.746;4.272;2023-10-13T15:29:17;16.67;;;6.30;;
22129;SDS011;11231;50.746;4.272;2023-10-13T15:31:50;17.73;;;5.93;;
22129;SDS011;11231;50.746;4.272;2023-10-13T15:34:27;13.27;;;5.20;;
22129;SDS011;11231;50.746;4.272;2023-10-13T15:36:54;13.93;;;6.10;;